createdAt,value
2022-10-17T00:02:24.959Z,99597.84
2022-10-17T00:04:58.708Z,99598.03
2022-10-17T00:07:28.701Z,99590.59
2022-10-17T00:10:00.435Z,99590.84
2022-10-17T00:12:37.214Z,99600.88
2022-10-17T00:15:24.674Z,99598.09
2022-10-17T00:18:02.046Z,99602.69
2022-10-17T00:20:45.802Z,99606.78
2022-10-17T00:23:13.520Z,99609.22
2022-10-17T00:25:47.673Z,99612.34
2022-10-17T00:28:19.489Z,99616.16
2022-10-17T00:30:56.150Z,99613.41
2022-10-17T00:33:35.319Z,99609.22
2022-10-17T00:36:18.002Z,99610.44
2022-10-17T00:38:49.089Z,99607.41
2022-10-17T00:41:22.994Z,99605.19
2022-10-17T00:43:56.241Z,99610.78
2022-10-17T00:46:32.295Z,99605.53
2022-10-17T00:49:06.063Z,99611.56
2022-10-17T00:51:46.449Z,99616.34
2022-10-17T00:54:19.199Z,99613.03
2022-10-17T00:56:49.665Z,99613.03
2022-10-17T00:59:22.444Z,99614.66
2022-10-17T01:02:06.528Z,99615.16
2022-10-17T01:04:44.041Z,99610.81
2022-10-17T01:07:15.700Z,99616.66
2022-10-17T01:09:51.940Z,99620.50
2022-10-17T01:12:31.513Z,99617.41
2022-10-17T01:18:48.361Z,99613.47
2022-10-17T01:21:18.966Z,99609.06
2022-10-17T01:24:16.893Z,99608.03
2022-10-17T01:27:02.470Z,99608.34
2022-10-17T01:29:59.467Z,99614.13
2022-10-17T01:32:39.377Z,99608.06
2022-10-17T01:35:18.555Z,99608.88
2022-10-17T01:37:57.958Z,99602.97
2022-10-17T01:40:28.108Z,99615.72
2022-10-17T01:43:02.618Z,99611.84
2022-10-17T01:45:33.099Z,99609.41
2022-10-17T01:48:15.183Z,99618.25
2022-10-17T01:51:09.420Z,99617.97
2022-10-17T01:53:42.982Z,99624.31
2022-10-17T01:56:19.491Z,99619.34
2022-10-17T01:59:02.002Z,99620.44
2022-10-17T02:01:46.673Z,99615.44
2022-10-17T02:04:25.813Z,99617.38
2022-10-17T02:07:03.125Z,99631.22
2022-10-17T02:09:36.249Z,99626.56
2022-10-17T02:12:27.639Z,99625.69
2022-10-17T02:15:22.629Z,99629.28
2022-10-17T02:18:15.747Z,99630.13
2022-10-17T02:21:10.628Z,99638.44
2022-10-17T02:23:51.299Z,99632.09
2022-10-17T02:26:40.815Z,99630.47
2022-10-17T02:29:21.416Z,99627.94
2022-10-17T02:32:30.305Z,99624.25
2022-10-17T02:35:14.779Z,99626.75
2022-10-17T02:37:55.569Z,99630.09
2022-10-17T02:40:32.555Z,99621.28
2022-10-17T02:43:05.536Z,99620.97
2022-10-17T02:45:36.227Z,99631.78
2022-10-17T02:51:09.268Z,99634.47
2022-10-17T02:54:15.524Z,99636.69
2022-10-17T02:57:13.861Z,99635.84
2022-10-17T02:59:53.656Z,99641.31
2022-10-17T03:02:26.451Z,99635.00
2022-10-17T03:05:07.029Z,99639.72
2022-10-17T03:07:37.954Z,99637.16
2022-10-17T03:10:13.971Z,99642.22
2022-10-17T03:12:45.307Z,99644.13
2022-10-17T03:15:15.046Z,99642.25
2022-10-17T03:17:53.285Z,99653.00
2022-10-17T03:20:29.929Z,99647.22
2022-10-17T03:23:00.799Z,99652.47
2022-10-17T03:25:33.376Z,99650.81
2022-10-17T03:28:14.609Z,99651.31
2022-10-17T03:31:13.106Z,99648.28
2022-10-17T03:33:51.210Z,99653.47
2022-10-17T03:36:31.270Z,99659.00
2022-10-17T03:39:02.132Z,99658.44
2022-10-17T03:41:31.253Z,99666.75
2022-10-17T03:44:13.399Z,99677.81
2022-10-17T03:46:50.180Z,99670.91
2022-10-17T03:49:23.735Z,99673.97
2022-10-17T03:51:58.653Z,99673.41
2022-10-17T03:54:29.034Z,99675.88
2022-10-17T03:57:00.264Z,99677.00
2022-10-17T03:59:40.280Z,99680.84
2022-10-17T04:02:23.637Z,99688.63
2022-10-17T04:05:01.152Z,99686.34
2022-10-17T04:07:37.925Z,99690.28
2022-10-17T04:10:07.166Z,99685.13
2022-10-17T04:12:40.749Z,99686.22
2022-10-17T04:15:14.654Z,99680.09
2022-10-17T04:17:44.386Z,99687.53
2022-10-17T04:20:15.448Z,99687.56
2022-10-17T04:22:48.255Z,99688.13
2022-10-17T04:28:09.391Z,99690.34
2022-10-17T04:33:21.914Z,99703.03
2022-10-17T04:36:22.158Z,99702.69
2022-10-17T04:38:51.931Z,99706.88
2022-10-17T04:41:25.916Z,99698.84
2022-10-17T04:43:56.850Z,99703.88
2022-10-17T04:46:31.750Z,99709.16
2022-10-17T04:49:14.053Z,99705.81
2022-10-17T04:51:55.798Z,99701.13
2022-10-17T04:57:18.928Z,99719.72
2022-10-17T05:00:17.859Z,99717.31
2022-10-17T05:02:59.360Z,99717.22
2022-10-17T05:05:32.737Z,99714.41
2022-10-17T05:08:18.771Z,99718.38
2022-10-17T05:10:55.531Z,99717.22
2022-10-17T05:13:27.631Z,99715.25
2022-10-17T05:16:01.469Z,99715.47
2022-10-17T05:18:30.008Z,99713.59
2022-10-17T05:20:58.818Z,99715.00
2022-10-17T05:23:36.169Z,99722.19
2022-10-17T05:26:07.257Z,99722.50
2022-10-17T05:28:40.323Z,99723.03
2022-10-17T05:31:11.592Z,99723.84
2022-10-17T05:33:44.890Z,99728.84
2022-10-17T05:36:15.823Z,99729.91
2022-10-17T05:38:48.935Z,99737.69
2022-10-17T05:41:20.328Z,99735.19
2022-10-17T05:43:51.161Z,99742.16
2022-10-17T05:46:26.041Z,99744.59
2022-10-17T05:49:10.665Z,99747.03
2022-10-17T05:51:53.759Z,99744.03
2022-10-17T05:54:27.137Z,99745.91
2022-10-17T05:57:00.011Z,99749.63
2022-10-17T05:59:31.799Z,99756.16
2022-10-17T06:02:20.933Z,99758.97
2022-10-17T06:04:50.882Z,99766.16
2022-10-17T06:07:25.067Z,99768.91
2022-10-17T06:10:09.233Z,99767.78
2022-10-17T06:12:40.051Z,99780.84
2022-10-17T06:18:00.350Z,99776.59
2022-10-17T06:20:37.637Z,99783.28
2022-10-17T06:26:11.805Z,99783.28
2022-10-17T06:28:41.763Z,99786.06
2022-10-17T06:31:16.992Z,99793.00
2022-10-17T06:34:04.653Z,99784.66
2022-10-17T06:36:41.365Z,99788.53
2022-10-17T06:39:10.878Z,99792.41
2022-10-17T06:41:47.746Z,99797.59
2022-10-17T06:44:22.951Z,99803.22
2022-10-17T06:47:03.112Z,99798.50
2022-10-17T06:49:34.930Z,99801.25
2022-10-17T06:52:28.677Z,99813.75
2022-10-17T06:55:27.694Z,99817.56
2022-10-17T06:58:45.833Z,99823.66
2022-10-17T07:01:35.349Z,99823.41
2022-10-17T07:04:08.065Z,99827.03
2022-10-17T07:06:44.975Z,99831.78
2022-10-17T07:09:23.532Z,99827.03
2022-10-17T07:12:01.252Z,99836.19
2022-10-17T07:14:32.504Z,99836.75
2022-10-17T07:17:11.246Z,99840.81
2022-10-17T07:19:45.720Z,99843.09
2022-10-17T07:25:07.872Z,99840.09
2022-10-17T07:27:50.564Z,99843.38
2022-10-17T07:30:22.797Z,99835.09
2022-10-17T07:33:25.552Z,99843.06
2022-10-17T07:35:55.927Z,99848.06
2022-10-17T07:38:24.892Z,99843.38
2022-10-17T07:41:01.374Z,99846.19
2022-10-17T07:43:32.244Z,99849.72
2022-10-17T07:46:18.988Z,99856.44
2022-10-17T07:48:49.830Z,99848.50
2022-10-17T07:51:36.289Z,99853.63
2022-10-17T07:54:16.854Z,99852.53
2022-10-17T07:56:50.953Z,99853.72
2022-10-17T07:59:20.261Z,99854.00
2022-10-17T08:01:53.951Z,99852.56
2022-10-17T08:04:31.043Z,99853.91
2022-10-17T08:07:17.961Z,99856.16
2022-10-17T08:09:50.940Z,99853.28
2022-10-17T08:12:24.904Z,99855.31
2022-10-17T08:14:54.574Z,99848.56
2022-10-17T08:17:24.218Z,99845.84
2022-10-17T08:22:40.164Z,99848.53
2022-10-17T08:25:28.994Z,99855.41
2022-10-17T08:28:01.210Z,99848.47
2022-10-17T08:30:31.880Z,99858.66
2022-10-17T08:33:12.049Z,99860.59
2022-10-17T08:35:42.532Z,99856.13
2022-10-17T08:38:17.838Z,99854.47
2022-10-17T08:40:50.645Z,99855.25
2022-10-17T08:43:41.546Z,99853.53
2022-10-17T08:46:17.894Z,99851.91
2022-10-17T08:49:14.375Z,99847.69
2022-10-17T08:51:52.192Z,99854.53
2022-10-17T08:54:28.008Z,99848.25
2022-10-17T08:56:56.680Z,99841.94
2022-10-17T08:59:35.554Z,99854.13
2022-10-17T09:02:31.210Z,99850.88
2022-10-17T09:05:23.863Z,99845.84
2022-10-17T09:08:09.337Z,99846.38
2022-10-17T09:11:01.924Z,99842.81
2022-10-17T09:13:53.136Z,99840.19
2022-10-17T09:16:44.374Z,99845.38
2022-10-17T09:19:33.689Z,99839.69
2022-10-17T09:22:21.540Z,99846.38
2022-10-17T09:24:58.188Z,99841.28
2022-10-17T09:27:48.739Z,99842.97
2022-10-17T09:30:45.119Z,99843.41
2022-10-17T09:33:34.429Z,99847.41
2022-10-17T09:36:20.245Z,99849.31
2022-10-17T09:39:00.059Z,99841.81
2022-10-17T09:41:51.016Z,99843.28
2022-10-17T09:44:44.398Z,99843.53
2022-10-17T09:47:32.416Z,99843.97
2022-10-17T09:50:05.188Z,99834.59
2022-10-17T09:52:44.206Z,99836.47
2022-10-17T09:55:26.286Z,99831.59
2022-10-17T09:57:59.069Z,99829.47
2022-10-17T10:00:32.274Z,99827.78
2022-10-17T10:03:22.082Z,99820.84
2022-10-17T10:06:16.004Z,99819.91
2022-10-17T10:09:06.991Z,99818.16
2022-10-17T10:11:57.987Z,99812.22
2022-10-17T10:14:30.313Z,99810.00
2022-10-17T10:17:00.875Z,99809.56
2022-10-17T10:19:41.566Z,99794.22
2022-10-17T10:22:28.498Z,99799.16
2022-10-17T10:25:21.941Z,99802.72
2022-10-17T10:27:53.306Z,99793.06
2022-10-17T10:30:26.321Z,99794.38
2022-10-17T10:32:55.729Z,99796.22
2022-10-17T10:35:39.056Z,99796.69
2022-10-17T10:38:17.673Z,99788.06
2022-10-17T10:40:53.490Z,99790.78
2022-10-17T10:43:38.053Z,99790.28
2022-10-17T10:46:32.516Z,99788.59
2022-10-17T10:49:06.994Z,99786.34
2022-10-17T10:51:44.712Z,99778.56
2022-10-17T10:54:19.641Z,99770.00
2022-10-17T10:56:52.655Z,99772.16
2022-10-17T10:59:45.752Z,99771.47
2022-10-17T11:02:16.028Z,99765.06
2022-10-17T11:04:53.502Z,99755.22
2022-10-17T11:07:52.076Z,99756.19
2022-10-17T11:10:33.371Z,99747.59
2022-10-17T11:13:11.457Z,99746.31
2022-10-17T11:16:05.977Z,99743.88
2022-10-17T11:18:44.638Z,99736.38
2022-10-17T11:24:29.759Z,99726.09
2022-10-17T11:27:08.616Z,99718.84
2022-10-17T11:32:49.417Z,99703.44
2022-10-17T11:35:32.563Z,99712.72
2022-10-17T11:38:16.141Z,99710.50
2022-10-17T11:40:47.065Z,99718.53
2022-10-17T11:43:43.395Z,99718.72
2022-10-17T11:46:20.513Z,99714.16
2022-10-17T11:49:06.423Z,99705.59
2022-10-17T11:54:36.742Z,99704.41
2022-10-17T11:57:31.405Z,99697.59
2022-10-17T12:00:21.070Z,99700.91
2022-10-17T12:03:10.644Z,99698.97
2022-10-17T12:06:04.228Z,99702.31
2022-10-17T12:09:15.720Z,99693.22
2022-10-17T12:12:10.174Z,99702.16
2022-10-17T12:14:46.915Z,99688.81
2022-10-17T12:17:42.088Z,99695.69
2022-10-17T12:20:34.803Z,99689.84
2022-10-17T12:23:41.087Z,99685.16
2022-10-17T12:26:13.472Z,99679.53
2022-10-17T12:28:45.044Z,99684.13
2022-10-17T12:31:32.545Z,99674.03
2022-10-17T12:34:05.090Z,99670.81
2022-10-17T12:36:45.157Z,99662.56
2022-10-17T12:39:23.497Z,99663.00
2022-10-17T12:42:23.527Z,99663.72
2022-10-17T12:45:00.734Z,99661.19
2022-10-17T12:47:36.346Z,99654.69
2022-10-17T12:50:34.799Z,99653.22
2022-10-17T12:53:08.639Z,99649.81
2022-10-17T12:55:36.914Z,99651.53
2022-10-17T12:58:11.311Z,99629.44
2022-10-17T13:04:00.112Z,99633.78
2022-10-17T13:06:38.389Z,99637.19
2022-10-17T13:09:19.717Z,99629.00
2022-10-17T13:11:52.950Z,99627.13
2022-10-17T13:14:30.684Z,99631.22
2022-10-17T13:17:12.007Z,99627.88
2022-10-17T13:20:07.372Z,99625.94
2022-10-17T13:22:38.435Z,99626.38
2022-10-17T13:25:21.486Z,99622.69
2022-10-17T13:27:56.905Z,99623.91
2022-10-17T13:30:33.048Z,99628.66
2022-10-17T13:33:04.779Z,99625.91
2022-10-17T13:35:59.520Z,99618.38
2022-10-17T13:38:38.968Z,99624.44
2022-10-17T13:41:35.514Z,99622.88
2022-10-17T13:44:12.251Z,99621.41
2022-10-17T13:46:43.093Z,99624.94
2022-10-17T13:49:45.404Z,99625.72
2022-10-17T13:52:32.468Z,99629.22
2022-10-17T13:55:17.513Z,99628.41
2022-10-17T13:57:48.382Z,99633.97
2022-10-17T14:00:26.379Z,99621.97
2022-10-17T14:02:57.085Z,99632.03
2022-10-17T14:05:28.387Z,99622.44
2022-10-17T14:08:22.979Z,99629.50
2022-10-17T14:11:02.378Z,99622.88
2022-10-17T14:13:37.478Z,99625.41
2022-10-17T14:16:14.766Z,99619.53
2022-10-17T14:18:51.922Z,99619.88
2022-10-17T14:21:43.738Z,99630.97
2022-10-17T14:24:22.276Z,99625.78
2022-10-17T14:26:57.671Z,99630.41
2022-10-17T14:29:55.639Z,99630.88
2022-10-17T14:35:40.974Z,99629.41
2022-10-17T14:38:28.149Z,99624.16
2022-10-17T14:44:22.430Z,99627.88
2022-10-17T14:47:06.042Z,99624.00
2022-10-17T14:49:44.217Z,99623.25
2022-10-17T14:52:29.039Z,99628.38
2022-10-17T14:55:07.551Z,99622.34
2022-10-17T14:57:47.727Z,99621.81
2022-10-17T15:00:17.884Z,99624.72
2022-10-17T15:05:32.428Z,99618.59
2022-10-17T15:08:02.371Z,99612.84
2022-10-17T15:10:45.257Z,99617.19
2022-10-17T15:13:33.548Z,99611.19
2022-10-17T15:16:36.843Z,99614.41
2022-10-17T15:19:07.273Z,99612.94
2022-10-17T15:21:43.370Z,99622.38
2022-10-17T15:24:16.362Z,99617.06
2022-10-17T15:26:49.479Z,99621.38
2022-10-17T15:29:23.018Z,99620.75
2022-10-17T15:31:52.948Z,99619.66
2022-10-17T15:34:29.456Z,99618.16
2022-10-17T15:37:08.816Z,99618.16
2022-10-17T15:39:45.859Z,99629.06
2022-10-17T15:42:16.328Z,99629.97
2022-10-17T15:44:49.727Z,99636.19
2022-10-17T15:47:27.757Z,99634.91
2022-10-17T15:50:01.235Z,99633.94
2022-10-17T15:52:36.500Z,99633.13
2022-10-17T15:55:08.035Z,99632.13
2022-10-17T15:57:50.697Z,99638.56
2022-10-17T16:00:33.675Z,99635.56
2022-10-17T16:03:14.495Z,99645.69
2022-10-17T16:05:44.201Z,99643.19
2022-10-17T16:08:24.288Z,99648.69
2022-10-17T16:10:54.944Z,99650.41
2022-10-17T16:13:39.771Z,99652.13
2022-10-17T16:16:14.291Z,99651.91
2022-10-17T16:18:46.475Z,99656.22
2022-10-17T16:21:19.215Z,99660.00
2022-10-17T16:23:49.228Z,99654.34
2022-10-17T16:26:18.855Z,99655.47
2022-10-17T16:28:55.062Z,99657.47
2022-10-17T16:31:34.483Z,99655.16
2022-10-17T16:34:03.207Z,99659.59
2022-10-17T16:36:36.594Z,99658.09
2022-10-17T16:41:58.704Z,99660.53
2022-10-17T16:44:28.092Z,99663.19
2022-10-17T16:47:06.648Z,99665.78
2022-10-17T16:49:42.960Z,99683.81
2022-10-17T16:52:19.119Z,99683.19
2022-10-17T16:54:49.579Z,99693.22
2022-10-17T16:57:26.898Z,99698.41
2022-10-17T17:00:00.681Z,99698.25
2022-10-17T17:02:45.666Z,99700.13
2022-10-17T17:05:15.566Z,99708.53
2022-10-17T17:07:48.155Z,99718.16
2022-10-17T17:10:25.563Z,99720.94
2022-10-17T17:13:01.998Z,99712.34
2022-10-17T17:15:40.042Z,99723.53
2022-10-17T17:18:08.007Z,99724.25
2022-10-17T17:20:39.152Z,99728.28
2022-10-17T17:26:02.588Z,99731.63
2022-10-17T17:28:32.976Z,99733.69
2022-10-17T17:31:06.823Z,99741.78
2022-10-17T17:33:37.423Z,99743.28
2022-10-17T17:36:16.798Z,99741.88
2022-10-17T17:38:45.502Z,99742.84
2022-10-17T17:41:15.464Z,99747.31
2022-10-17T17:43:46.611Z,99736.00
2022-10-17T17:46:19.437Z,99745.41
2022-10-17T17:48:50.301Z,99742.09
2022-10-17T17:51:19.889Z,99730.66
2022-10-17T17:53:49.980Z,99745.97
2022-10-17T17:56:18.857Z,99744.09
2022-10-17T17:58:53.663Z,99744.09
2022-10-17T18:01:24.118Z,99744.00
2022-10-17T18:03:55.929Z,99743.25
2022-10-17T18:06:29.800Z,99751.63
2022-10-17T18:09:01.534Z,99749.66
2022-10-17T18:11:38.362Z,99743.72
2022-10-17T18:17:13.071Z,99753.16
2022-10-17T18:19:43.199Z,99749.41
2022-10-17T18:22:17.067Z,99753.72
2022-10-17T18:24:54.393Z,99760.66
2022-10-17T18:27:28.075Z,99750.75
2022-10-17T18:30:05.963Z,99757.56
2022-10-17T18:32:35.099Z,99754.09
2022-10-17T18:35:05.786Z,99758.09
2022-10-17T18:40:20.493Z,99768.03
2022-10-17T18:42:51.602Z,99768.38
2022-10-17T18:45:21.771Z,99767.59
2022-10-17T18:47:54.075Z,99774.09
2022-10-17T18:50:29.699Z,99777.41
2022-10-17T18:53:00.828Z,99767.28
2022-10-17T18:55:34.653Z,99770.44
2022-10-17T18:58:05.606Z,99774.16
2022-10-17T19:00:36.422Z,99774.78
2022-10-17T19:03:19.085Z,99769.50
2022-10-17T19:05:50.357Z,99764.81
2022-10-17T19:08:20.550Z,99763.81
2022-10-17T19:10:54.385Z,99765.94
2022-10-17T19:13:28.814Z,99767.19
2022-10-17T19:16:02.465Z,99778.22
2022-10-17T19:21:23.031Z,99777.66
2022-10-17T19:23:52.505Z,99771.44
2022-10-17T19:26:22.900Z,99772.94
2022-10-17T19:29:00.758Z,99770.19
2022-10-17T19:31:31.583Z,99775.47
2022-10-17T19:34:02.052Z,99772.41
2022-10-17T19:36:33.470Z,99766.28
2022-10-17T19:39:05.162Z,99763.34
2022-10-17T19:41:38.457Z,99770.25
2022-10-17T19:44:08.568Z,99767.59
2022-10-17T19:46:39.141Z,99766.66
2022-10-17T19:49:23.549Z,99777.06
2022-10-17T19:51:56.314Z,99766.59
2022-10-17T19:54:29.799Z,99764.88
2022-10-17T19:57:00.515Z,99766.38
2022-10-17T19:59:34.917Z,99770.13
2022-10-17T20:02:05.313Z,99767.84
2022-10-17T20:05:00.169Z,99771.72
2022-10-17T20:07:42.912Z,99771.41
2022-10-17T20:10:16.637Z,99780.41
2022-10-17T20:12:49.476Z,99774.22
2022-10-17T20:15:26.148Z,99780.13
2022-10-17T20:17:57.330Z,99784.84
2022-10-17T20:20:28.635Z,99785.19
2022-10-17T20:22:59.184Z,99790.78
2022-10-17T20:25:30.363Z,99791.19
2022-10-17T20:27:58.210Z,99776.13
2022-10-17T20:30:36.673Z,99782.00
2022-10-17T20:33:07.812Z,99786.03
2022-10-17T20:38:20.015Z,99780.22
2022-10-17T20:40:56.444Z,99784.72
2022-10-17T20:43:28.343Z,99791.56
2022-10-17T20:46:08.686Z,99786.81
2022-10-17T20:48:51.591Z,99790.22
2022-10-17T20:51:21.851Z,99795.72
2022-10-17T20:53:53.307Z,99789.50
2022-10-17T20:56:31.123Z,99796.13
2022-10-17T20:59:08.371Z,99786.22
2022-10-17T21:01:40.024Z,99784.34
2022-10-17T21:07:06.958Z,99789.41
2022-10-17T21:09:37.355Z,99790.47
2022-10-17T21:12:08.263Z,99791.63
2022-10-17T21:14:42.087Z,99792.13
2022-10-17T21:17:13.838Z,99794.78
2022-10-17T21:20:16.960Z,99792.06
2022-10-17T21:22:47.401Z,99779.63
2022-10-17T21:25:21.311Z,99787.97
2022-10-17T21:27:58.477Z,99787.91
2022-10-17T21:30:38.983Z,99780.75
2022-10-17T21:33:13.853Z,99774.47
2022-10-17T21:35:45.093Z,99781.19
2022-10-17T21:38:22.465Z,99785.28
2022-10-17T21:40:55.374Z,99776.34
2022-10-17T21:43:27.753Z,99781.16
2022-10-17T21:48:43.758Z,99778.84
2022-10-17T21:51:15.303Z,99778.84
2022-10-17T21:53:50.916Z,99787.34
2022-10-17T21:56:22.288Z,99780.19
2022-10-17T21:59:01.935Z,99774.59
2022-10-17T22:01:41.050Z,99778.22
2022-10-17T22:04:12.094Z,99778.28
2022-10-17T22:06:44.290Z,99773.81
2022-10-17T22:09:24.148Z,99777.63
2022-10-17T22:12:08.086Z,99780.78
2022-10-17T22:14:50.618Z,99784.13
2022-10-17T22:17:26.940Z,99778.31
2022-10-17T22:19:56.279Z,99786.59
2022-10-17T22:22:27.512Z,99781.34
2022-10-17T22:24:57.910Z,99780.81
2022-10-17T22:27:28.967Z,99781.34
2022-10-17T22:30:07.008Z,99782.72
2022-10-17T22:32:36.890Z,99781.63
2022-10-17T22:35:06.669Z,99787.69
2022-10-17T22:37:45.110Z,99769.13
2022-10-17T22:40:16.758Z,99771.28
2022-10-17T22:42:47.779Z,99773.25
2022-10-17T22:45:27.195Z,99771.56
2022-10-17T22:48:00.382Z,99760.50
2022-10-17T22:50:31.770Z,99762.78
2022-10-17T22:53:00.539Z,99766.41
2022-10-17T22:55:36.644Z,99761.97
2022-10-17T22:58:04.665Z,99759.50
2022-10-17T23:00:40.882Z,99755.34
2022-10-17T23:03:09.540Z,99752.56
2022-10-17T23:08:33.259Z,99751.47
2022-10-17T23:11:15.013Z,99758.41
2022-10-17T23:13:48.371Z,99752.03
2022-10-17T23:16:19.448Z,99753.94
2022-10-17T23:18:50.313Z,99749.53
2022-10-17T23:21:23.363Z,99753.97
2022-10-17T23:23:53.744Z,99750.91
2022-10-17T23:26:27.777Z,99757.84
2022-10-17T23:28:58.515Z,99755.53
2022-10-17T23:31:26.214Z,99760.81
2022-10-17T23:34:04.072Z,99753.69
2022-10-17T23:36:34.841Z,99755.91
2022-10-17T23:39:05.920Z,99751.47
2022-10-17T23:41:39.771Z,99752.00
2022-10-17T23:44:12.368Z,99757.53
2022-10-17T23:46:43.385Z,99756.69
2022-10-17T23:49:19.933Z,99753.44
2022-10-17T23:51:50.429Z,99759.78
2022-10-17T23:54:21.305Z,99755.63
2022-10-17T23:56:51.421Z,99752.84
2022-10-17T23:59:24.799Z,99762.00
